Aeroporto :







RITROVATECI SU...

 
LOGIN :

Iscrizione | Disclaimer

   EN    FR    IT 

 









Sommario :    VFR   VFR Marginale   IFR   IFR Intensivo   IFR Molto Intensivo
Visibilità : 
Base nubi : 
>= 8 km
>= 3000ft
5 / 8 km
1000 / 3000 ft
1500m / 5 km
500 / 1000 ft
800 / 1500m
200 / 500 ft
< 800m
< 200 ft
Simboli :   Temporali  Nebbia  Neve Forte  Precipitazioni Forti  Vento > 20 kt






- Altitudine del aeroporto : 41 ft
- Codice IATA : GND


TGPY - Point Salines

ULTIMO METAR :
  • 281700Z 10015KT 9999 VCSH FEW014CB BKN018TCU 31/26 Q1011 TEMPO SHRA CB-NE/SSE/S/W TCU-N/ESE ADJ SHRA-N-SE/SW

METARs OBSOLETI :
  • 281600Z 10010KT 9999 VCSH FEW014CB BKN018 31/26 Q1012 NOSIG CB-ESE/S/SW TCU-W ADJ SHRA-ESE/SW
  • 281500Z 10015KT 9999 VCSH FEW014CB BKN018 31/25 Q1013 NOSIG CB-S ADJ SHRA-SSW

TAF TGPY
Valido dal 28 a 12 ore il 29 a 12 ore UTC


281000Z 2812/2912 13008KT 9999 FEW015CB SCT018
PROB40
TEMPO 2818/2824 5000 SHRA TS FEW012CB BKN016
FIR TTZP / America del Nord



MetMap, La meteo Aeronautica in un colpo d'occhio ! - Copyright ORBIFLY Dicembre 2007 - Disclaimer

ORBIFLY MET'MAP TEAM :

Programmazione e sviluppo : Alexandra Zaïnal
Concezione : Baudouin d'Aumeries
Aiuto per la programmazione : Marc-Olivier Méhu
Supporto tecnico e logistico : Manuel Goepfert
Aiuto per la traduzione : Arnaldo La Scala

Contatto : metmap@orbifly.com




FONTI E CREDITI :

   NOAA